Thursday, May 24, 2018, 5:43 AM EDT
Back to Local

KIWI, Wiscasset Municipal Airport

Location: Wiscasset, ME, United States Lat: 43.967
Local Time: 5:43 AM EDT ( 9:43 GMT) Lon: -69.717
Time Zone: US/Eastern Elev: 68 ft

Show me the last for .
Show Decoded

2018-05-24 04:53 METAR KIWI 240853Z AUTO 00000KT 10SM SCT050 BKN110 08/07 A3006 RMK AO2 SLP178
                 T00780072 53007 =
2018-05-24 03:53 METAR KIWI 240753Z AUTO 11003KT 10SM FEW110 08/08 A3005 RMK AO2 SLP174 T00830078
                 =
2018-05-24 03:08 METAR KIWI 240708Z AUTO 10005KT 10SM SCT006 09/08 A3004 RMK AO2 T00890083 =
2018-05-24 02:53 METAR KIWI 240653Z AUTO 10005KT 10SM CLR 09/08 A3004 RMK AO2 SLP171 T00890083 =
2018-05-24 01:53 METAR KIWI 240553Z AUTO 00000KT 10SM CLR 08/08 A3003 RMK AO2 SLP170 T00830078
                 10172 20083 51012 =
2018-05-24 00:53 METAR KIWI 240453Z AUTO 00000KT 10SM CLR 09/09 A3003 RMK AO2 SLP168 T00940089
                 402610094 =
2018-05-23 23:53 METAR KIWI 240353Z AUTO 00000KT 10SM OVC090 12/10 A3002 RMK AO2 SLP164 T01170100
                 =
2018-05-23 22:53 METAR KIWI 240253Z AUTO 00000KT 10SM BKN095 12/10 A3000 RMK AO2 SLP159 T01170100
                 50019 =
2018-05-23 21:53 METAR KIWI 240153Z AUTO 09005KT 10SM CLR 12/10 A3000 RMK AO2 SLP159 T01220100 =
2018-05-23 20:53 METAR KIWI 240053Z AUTO 09003KT 10SM CLR 14/12 A2997 RMK AO2 SLP150 T01390117 =
2018-05-23 19:53 METAR KIWI 232353Z AUTO VRB04KT 10SM CLR 17/10 A2994 RMK AO2 SLP139 60001
                 T01720100 10261 20172 53037 =
2018-05-23 18:53 METAR KIWI 232253Z AUTO 07006KT 10SM FEW075 FEW090 18/13 A2991 RMK AO2 SLP128
                 T01830128 =
2018-05-23 17:53 METAR KIWI 232153Z AUTO 08008KT 10SM FEW100 21/14 A2986 RMK AO2 SLP112 T02110139
                 =
2018-05-23 16:53 METAR KIWI 232053Z AUTO VRB04KT 10SM FEW065 SCT080 BKN110 22/15 A2983 RMK AO2
                 RAE04B28E40 SLP102 P0000 60001 T02170150 53018 =
2018-05-23 15:53 METAR KIWI 231953Z AUTO 21008KT 10SM -RA FEW055 OVC080 21/15 A2980 RMK AO2
                 RAB10E23B50 SLP090 P0001 T02060150 =
2018-05-23 15:19 METAR KIWI 231919Z AUTO 23005KT 7SM -RA FEW040 SCT070 BKN100 22/13 A2978 RMK AO2
                 LTG DSNT NE AND E RAB10 P0001 T02170128 $ =
2018-05-23 14:53 METAR KIWI 231853Z AUTO 22011G17KT 10SM VCTS FEW080 FEW100 25/12 A2976 RMK AO2
                 LTG DSNT NW SLP077 T02500122 $ =
2018-05-23 13:53 METAR KIWI 231753Z AUTO VRB06KT CLR 25/12 A2978 RMK AO2 SLP084 T02500117 10256
                 20156 58020 $ =
2018-05-23 12:53 METAR KIWI 231653Z AUTO VRB05KT 10SM CLR 24/12 A2981 RMK AO2 SLP093 T02390122 =
2018-05-23 11:53 METAR KIWI 231553Z AUTO VRB06KT 10SM CLR 22/12 A2983 RMK AO2 SLP102 T02220117 =
2018-05-23 10:53 METAR KIWI 231453Z AUTO 00000KT 10SM CLR 21/12 A2984 RMK AO2 SLP104 T02110117
                 58006 =
2018-05-23 09:53 METAR KIWI 231353Z AUTO VRB04KT 10SM CLR 19/12 A2985 RMK AO2 SLP107 T01940117 =
2018-05-23 08:53 METAR KIWI 231253Z AUTO VRB04KT 10SM CLR 18/12 A2986 RMK AO2 SLP110 T01780117 =
2018-05-23 07:53 METAR KIWI 231153Z AUTO VRB03KT 10SM CLR 16/12 A2986 RMK AO2 SLP110 60002 70002
                 T01560117 10156 20111 53002 =
2018-05-23 06:53 METAR KIWI 231053Z AUTO 00000KT 10SM CLR 12/11 A2985 RMK AO2 SLP109 T01220111 =
2018-05-23 05:53 METAR KIWI 230953Z AUTO 00000KT 10SM BKN065 BKN100 11/11 A2985 RMK AO2 SLP109
                 T01110111 =

Support USWX by starting your Amazon purchase here.